Terminal Aerodrome Forecast
Issued by NWS

Home | Current Version | Previous Version | Graphics & Text | Print | Product List | Glossary On
Versions: 1 2 3 4 5 6 7 8 9 10 11 12 13 14 15 16 17 18 19 20 21 22 23 24 25 26 27 28 29 30 31 32
908
FTUS43 KLOT 141240 AAA
TAFDPA
TAF AMD
KDPA 141240Z 1413/1512 08006KT 5SM SHRA BR VCTS SCT008 OVC040CB
      TEMPO 1413/1415 2SM TSRA SCT005 BKN030CB
     FM141500 14007KT 6SM BR VCSH BKN007 OVC035
     FM141600 16010KT 5SM -SHRA BR BKN015 OVC040
      TEMPO 1416/1418 2SM -TSRA SCT007 OVC012CB
     FM142100 17009KT 4SM SHRA VCTS BKN015 OVC025CB
     FM150200 19015G23KT 4SM -SHRA VCTS SCT007 OVC020CB
      TEMPO 1505/1507 2SM TSRA OVC015CB
     FM150800 24014G23KT 6SM -SHRA OVC015=

USA.gov is the U.S. government's official web portal to all federal, state and local government web resources and services.